createdAt,value
2018-07-15T00:04:21.170Z,66.52
2018-07-15T00:04:50.563Z,66.33
2018-07-15T00:05:53.525Z,66.42
2018-07-15T00:06:50.645Z,66.03
2018-07-15T00:07:50.704Z,66.52
2018-07-15T00:08:50.573Z,66.52
2018-07-15T00:09:50.601Z,66.42
2018-07-15T00:10:50.520Z,66.71
2018-07-15T00:11:50.553Z,66.33
2018-07-15T00:12:51.346Z,66.33
2018-07-15T00:13:50.492Z,65.84
2018-07-15T00:14:50.502Z,66.49
2018-07-15T00:15:50.479Z,65.91
2018-07-15T00:16:51.610Z,66.42
2018-07-15T00:17:50.707Z,66.33
2018-07-15T00:18:50.461Z,66.71
2018-07-15T00:20:40.836Z,66.49
2018-07-15T00:20:50.428Z,66.33
2018-07-15T00:21:51.998Z,66.58
2018-07-15T00:27:58.574Z,66.00
2018-07-15T00:28:58.570Z,66.52
2018-07-15T00:42:59.521Z,66.77
2018-07-15T00:47:45.814Z,66.77
2018-07-15T00:51:25.086Z,66.96
2018-07-15T00:51:58.006Z,66.77
2018-07-15T00:52:58.031Z,66.67
2018-07-15T00:53:58.021Z,66.67
2018-07-15T00:54:58.060Z,67.16
2018-07-15T00:55:58.022Z,67.16
2018-07-15T00:57:01.485Z,67.54
2018-07-15T00:57:58.018Z,67.54
2018-07-15T00:58:57.962Z,67.22
2018-07-15T00:59:57.958Z,67.35
2018-07-15T01:00:57.965Z,67.35
2018-07-15T01:01:58.019Z,67.41
2018-07-15T01:02:57.905Z,67.35
2018-07-15T01:03:57.912Z,67.06
2018-07-15T01:11:11.558Z,67.89
2018-07-15T01:11:42.292Z,67.99
2018-07-15T01:12:12.108Z,68.08
2018-07-15T01:13:12.024Z,67.89
2018-07-15T01:14:12.005Z,68.27
2018-07-15T01:19:08.593Z,67.99
2018-07-15T01:20:08.479Z,67.89
2018-07-15T01:21:08.463Z,68.02
2018-07-15T01:22:08.521Z,67.83
2018-07-15T01:23:08.459Z,67.89
2018-07-15T01:24:08.415Z,67.89
2018-07-15T01:25:08.479Z,67.73
2018-07-15T01:26:08.439Z,67.89
2018-07-15T01:27:08.403Z,67.83
2018-07-15T01:28:08.402Z,67.79
2018-07-15T01:29:08.536Z,67.69
2018-07-15T01:30:08.368Z,67.89
2018-07-15T01:31:08.426Z,67.79
2018-07-15T01:32:08.365Z,67.69
2018-07-15T01:33:08.350Z,67.99
2018-07-15T01:34:09.319Z,67.69
2018-07-15T01:35:08.373Z,67.89
2018-07-15T01:36:08.363Z,67.69
2018-07-15T01:37:08.312Z,68.18
2018-07-15T01:38:08.325Z,67.69
2018-07-15T01:39:08.366Z,67.99
2018-07-15T01:40:08.308Z,67.89
2018-07-15T01:49:01.688Z,67.79
2018-07-15T01:49:34.601Z,68.08
2018-07-15T01:50:36.197Z,67.89
2018-07-15T01:51:34.590Z,67.89
2018-07-15T01:52:34.646Z,68.08
2018-07-15T01:53:34.682Z,67.99
2018-07-15T01:54:35.180Z,67.41
2018-07-15T01:55:34.762Z,67.50
2018-07-15T01:56:34.546Z,68.18
2018-07-15T01:57:34.724Z,68.18
2018-07-15T01:58:35.140Z,68.27
2018-07-15T01:59:34.596Z,68.75
2018-07-15T02:00:34.657Z,68.18
2018-07-15T02:01:34.669Z,68.27
2018-07-15T02:02:34.491Z,68.46
2018-07-15T02:03:34.496Z,68.27
2018-07-15T02:04:34.477Z,68.46
2018-07-15T02:05:34.473Z,68.18
2018-07-15T02:06:34.467Z,68.27
2018-07-15T02:07:34.451Z,68.37
2018-07-15T02:08:34.428Z,68.43
2018-07-15T02:09:34.426Z,68.75
2018-07-15T02:10:34.470Z,68.66
2018-07-15T02:11:34.413Z,68.56
2018-07-15T02:12:34.416Z,68.46
2018-07-15T02:13:34.378Z,68.46
2018-07-15T02:14:34.373Z,68.46
2018-07-15T02:15:34.699Z,67.99
2018-07-15T02:16:34.357Z,68.08
2018-07-15T02:17:34.349Z,68.46
2018-07-15T02:18:34.359Z,68.46
2018-07-15T02:19:34.317Z,68.56
2018-07-15T02:20:34.456Z,68.27
2018-07-15T02:21:36.158Z,68.43
2018-07-15T02:22:34.349Z,68.43
2018-07-15T02:23:36.121Z,68.27
2018-07-15T02:24:35.405Z,68.56
2018-07-15T02:25:34.276Z,68.18
2018-07-15T02:26:34.375Z,68.14
2018-07-15T02:27:34.289Z,68.14
2018-07-15T02:28:34.247Z,68.33
2018-07-15T02:29:34.410Z,68.46
2018-07-15T02:30:34.235Z,68.43
2018-07-15T02:31:35.132Z,68.43
2018-07-15T02:32:34.261Z,68.33
2018-07-15T02:33:34.193Z,68.43
2018-07-15T02:34:34.173Z,68.52
2018-07-15T02:35:34.175Z,68.52
2018-07-15T02:36:34.220Z,68.81
2018-07-15T02:37:34.166Z,69.01
2018-07-15T02:38:34.183Z,68.72
2018-07-15T02:39:34.155Z,68.62
2018-07-15T02:40:34.130Z,68.81
2018-07-15T02:41:34.122Z,69.39
2018-07-15T02:42:34.236Z,69.01
2018-07-15T02:43:34.092Z,69.10
2018-07-15T02:44:34.080Z,69.10
2018-07-15T02:45:34.074Z,69.48
2018-07-15T02:46:34.276Z,69.20
2018-07-15T02:47:35.788Z,69.01
2018-07-15T02:48:34.490Z,69.10
2018-07-15T02:49:34.075Z,69.10
2018-07-15T02:50:34.261Z,69.39
2018-07-15T02:51:34.039Z,69.20
2018-07-15T02:52:34.036Z,69.39
2018-07-15T02:53:34.005Z,69.48
2018-07-15T02:54:34.032Z,69.39
2018-07-15T02:55:33.973Z,69.20
2018-07-15T02:56:34.044Z,69.48
2018-07-15T02:57:33.948Z,69.58
2018-07-15T02:58:34.241Z,69.48
2018-07-15T02:59:33.944Z,69.48
2018-07-15T03:00:33.926Z,69.29
2018-07-15T03:01:35.741Z,69.39
2018-07-15T03:02:33.902Z,69.39
2018-07-15T03:03:34.015Z,69.48
2018-07-15T03:04:35.657Z,69.68
2018-07-15T03:05:33.985Z,69.39
2018-07-15T03:06:33.887Z,69.39
2018-07-15T03:07:34.084Z,69.29
2018-07-15T03:08:44.905Z,69.58
2018-07-15T03:09:33.962Z,69.39
2018-07-15T03:10:33.907Z,69.39
2018-07-15T03:11:33.825Z,69.39
2018-07-15T03:12:33.810Z,69.87
2018-07-15T03:13:34.042Z,69.58
2018-07-15T03:14:34.157Z,69.58
2018-07-15T03:15:33.780Z,69.48
2018-07-15T03:16:33.769Z,69.29
2018-07-15T03:17:33.761Z,69.48
2018-07-15T03:18:33.839Z,69.29
2018-07-15T03:19:33.819Z,69.29
2018-07-15T03:20:33.752Z,69.48
2018-07-15T03:21:33.725Z,69.39
2018-07-15T03:22:33.718Z,69.29
2018-07-15T03:23:33.731Z,69.48
2018-07-15T03:24:35.833Z,69.45
2018-07-15T03:25:34.693Z,69.45
2018-07-15T03:26:33.669Z,69.54
2018-07-15T03:27:33.679Z,69.74
2018-07-15T03:28:33.803Z,69.74
2018-07-15T03:29:33.686Z,69.54
2018-07-15T03:30:33.647Z,69.54
2018-07-15T03:31:33.646Z,70.03
2018-07-15T03:32:33.732Z,69.64
2018-07-15T04:31:33.387Z,71.11
2018-07-15T04:32:33.334Z,70.81
2018-07-15T04:33:33.296Z,70.81
2018-07-15T04:34:33.310Z,70.91
2018-07-15T04:35:33.637Z,70.81
2018-07-15T04:36:33.275Z,70.91
2018-07-15T04:37:33.280Z,71.11
2018-07-15T04:38:33.252Z,71.01
2018-07-15T04:39:33.285Z,70.91
2018-07-15T04:40:33.235Z,71.30
2018-07-15T04:41:33.245Z,71.20
2018-07-15T04:42:33.205Z,71.30
2018-07-15T04:43:33.204Z,71.20
2018-07-15T04:44:33.223Z,71.48
2018-07-15T04:45:33.218Z,71.11
2018-07-15T04:46:33.171Z,71.39
2018-07-15T04:47:33.145Z,71.20
2018-07-15T04:48:33.150Z,71.48
2018-07-15T04:49:33.135Z,71.39
2018-07-15T04:50:33.169Z,71.71
2018-07-15T04:51:33.113Z,71.33
2018-07-15T04:52:33.111Z,71.23
2018-07-15T04:53:33.086Z,71.14
2018-07-15T04:54:33.088Z,71.14
2018-07-15T04:55:33.077Z,71.42
2018-07-15T04:56:33.082Z,71.42
2018-07-15T04:57:33.057Z,71.23
2018-07-15T04:58:33.038Z,71.14
2018-07-15T04:59:33.018Z,71.42
2018-07-15T05:00:33.056Z,71.52
2018-07-15T05:01:35.845Z,70.95
2018-07-15T05:02:32.991Z,71.52
2018-07-15T05:03:33.599Z,71.33
2018-07-15T05:04:34.431Z,71.46
2018-07-15T05:05:32.995Z,70.95
2018-07-15T05:06:32.952Z,71.17
2018-07-15T05:07:33.028Z,71.66
2018-07-15T05:08:33.854Z,71.17
2018-07-15T05:09:32.919Z,71.56
2018-07-15T05:10:32.932Z,71.27
2018-07-15T05:11:32.916Z,71.84
2018-07-15T05:12:32.889Z,71.46
2018-07-15T05:13:32.905Z,71.66
2018-07-15T05:14:33.869Z,71.94
2018-07-15T05:15:32.860Z,72.71
2018-07-15T05:16:32.910Z,72.32
2018-07-15T05:17:32.841Z,72.23
2018-07-15T05:18:33.203Z,71.94
2018-07-15T05:19:33.353Z,72.13
2018-07-15T05:20:32.807Z,72.32
2018-07-15T05:21:32.806Z,71.84
2018-07-15T05:22:32.800Z,71.84
2018-07-15T05:23:32.816Z,71.94
2018-07-15T05:24:32.781Z,72.03
2018-07-15T05:25:32.759Z,72.61
2018-07-15T05:26:32.759Z,72.32
2018-07-15T05:27:32.737Z,72.52
2018-07-15T05:28:32.727Z,72.32
2018-07-15T05:29:32.830Z,72.61
2018-07-15T05:30:32.720Z,73.28
2018-07-15T05:31:32.697Z,72.71
2018-07-15T05:32:32.695Z,72.99
2018-07-15T05:33:32.675Z,72.71
2018-07-15T05:34:32.676Z,72.90
2018-07-15T05:35:32.700Z,72.90
2018-07-15T05:36:32.641Z,72.90
2018-07-15T05:37:32.642Z,72.90
2018-07-15T05:38:32.725Z,73.38
2018-07-15T05:39:32.618Z,73.38
2018-07-15T05:40:32.604Z,73.90
2018-07-15T05:41:32.601Z,74.08
2018-07-15T05:42:32.592Z,73.80
2018-07-15T05:43:32.576Z,74.18
2018-07-15T05:44:32.580Z,73.47
2018-07-15T05:45:32.596Z,73.13
2018-07-15T05:46:32.555Z,73.61
2018-07-15T05:47:32.558Z,74.37
2018-07-15T05:48:32.554Z,74.24
2018-07-15T05:49:32.528Z,74.37
2018-07-15T05:50:32.516Z,74.37
2018-07-15T05:51:32.549Z,73.99
2018-07-15T05:52:32.487Z,74.08
2018-07-15T05:53:32.472Z,73.51
2018-07-15T05:54:32.482Z,73.80
2018-07-15T05:55:32.461Z,73.61
2018-07-15T05:56:32.450Z,73.51
2018-07-15T05:57:32.440Z,73.80
2018-07-15T05:58:32.423Z,74.37
2018-07-15T05:59:32.504Z,74.08
2018-07-15T06:00:32.427Z,73.51
2018-07-15T06:01:32.406Z,73.70
2018-07-15T06:02:32.405Z,73.99
2018-07-15T06:03:32.402Z,73.80
2018-07-15T06:04:32.363Z,73.70
2018-07-15T06:05:32.427Z,73.70
2018-07-15T06:06:32.347Z,73.80
2018-07-15T06:07:32.346Z,73.51
2018-07-15T06:08:32.342Z,73.41
2018-07-15T06:09:32.332Z,73.61
2018-07-15T06:10:32.507Z,73.90
2018-07-15T06:11:32.315Z,73.90
2018-07-15T06:12:32.301Z,73.16
2018-07-15T06:13:32.292Z,73.07
2018-07-15T06:14:32.276Z,73.74
2018-07-15T06:15:32.266Z,73.26
2018-07-15T06:16:32.246Z,73.74
2018-07-15T06:17:32.267Z,73.55
2018-07-15T06:18:32.252Z,73.35
2018-07-15T06:19:32.239Z,73.55
2018-07-15T06:20:32.216Z,73.74
2018-07-15T06:21:32.218Z,73.16
2018-07-15T06:22:32.197Z,73.07
2018-07-15T06:23:32.212Z,73.65
2018-07-15T06:24:32.208Z,73.83
2018-07-15T06:25:32.168Z,74.02
2018-07-15T06:26:32.173Z,73.93
2018-07-15T06:27:32.156Z,73.65
2018-07-15T06:28:32.150Z,73.26
2018-07-15T06:29:32.956Z,73.83
2018-07-15T06:30:32.134Z,73.65
2018-07-15T06:31:32.111Z,73.83
2018-07-15T06:32:32.105Z,73.83
2018-07-15T06:33:32.136Z,73.87
2018-07-15T06:34:37.982Z,74.06
2018-07-15T06:35:32.103Z,73.83
2018-07-15T06:36:32.071Z,73.83
2018-07-15T06:37:32.053Z,73.83
2018-07-15T06:38:32.054Z,74.12
2018-07-15T06:39:32.113Z,73.65
2018-07-15T06:40:32.021Z,73.10
2018-07-15T06:41:32.016Z,73.39
2018-07-15T06:42:32.025Z,73.30
2018-07-15T06:43:32.017Z,73.26
2018-07-15T06:44:32.001Z,73.16
2018-07-15T06:45:32.104Z,73.55
2018-07-15T06:46:31.974Z,73.10
2018-07-15T06:47:31.968Z,73.07
2018-07-15T06:48:32.172Z,72.91
2018-07-15T06:49:31.952Z,72.81
2018-07-15T06:50:31.992Z,72.72
2018-07-15T06:51:31.930Z,72.91
2018-07-15T06:52:31.926Z,72.43
2018-07-15T06:53:31.918Z,72.53
2018-07-15T06:54:32.152Z,72.63
2018-07-15T06:55:31.891Z,72.33
2018-07-15T06:56:31.887Z,72.14
2018-07-15T06:57:31.875Z,72.53
2018-07-15T06:58:31.855Z,72.33
2018-07-15T06:59:31.883Z,73.10
2018-07-15T07:00:31.848Z,73.04
2018-07-15T07:01:31.882Z,72.75
2018-07-15T07:02:31.878Z,72.75
2018-07-15T07:03:31.828Z,72.28
2018-07-15T07:04:31.813Z,72.56
2018-07-15T07:05:31.788Z,72.47
2018-07-15T07:06:31.794Z,72.37
2018-07-15T07:07:31.849Z,72.37
2018-07-15T07:08:31.794Z,72.47
2018-07-15T07:09:31.784Z,72.37
2018-07-15T07:10:31.765Z,72.37
2018-07-15T07:11:31.795Z,71.98
2018-07-15T07:12:31.736Z,71.89
2018-07-15T07:13:31.967Z,71.61
2018-07-15T07:14:31.708Z,72.18
2018-07-15T07:15:31.714Z,72.28
2018-07-15T07:16:31.708Z,71.89
2018-07-15T07:17:31.695Z,71.51
2018-07-15T07:18:31.691Z,71.03
2018-07-15T07:19:31.765Z,71.70
2018-07-15T07:20:31.706Z,71.61
2018-07-15T07:21:31.658Z,71.61
2018-07-15T07:22:31.653Z,71.98
2018-07-15T07:23:31.642Z,71.89
2018-07-15T07:24:31.633Z,71.89
2018-07-15T07:25:31.627Z,71.89
2018-07-15T07:26:31.623Z,71.80
2018-07-15T07:27:31.617Z,71.22
2018-07-15T07:28:31.597Z,71.22
2018-07-15T07:29:31.606Z,71.80
2018-07-15T07:30:31.589Z,71.25
2018-07-15T07:31:31.598Z,71.35
2018-07-15T07:32:31.562Z,71.64
2018-07-15T07:33:31.559Z,71.06
2018-07-15T07:34:31.584Z,71.06
2018-07-15T07:35:31.639Z,70.97
2018-07-15T07:36:31.527Z,70.87
2018-07-15T07:37:31.532Z,71.06
2018-07-15T07:38:31.525Z,71.16
2018-07-15T07:39:31.509Z,70.97
2018-07-15T07:40:31.495Z,70.68
2018-07-15T07:41:31.493Z,70.49
2018-07-15T07:42:31.476Z,71.06
2018-07-15T07:43:31.462Z,70.39
2018-07-15T07:44:31.455Z,70.49
2018-07-15T07:45:31.468Z,70.58
2018-07-15T07:46:31.446Z,70.68
2018-07-15T07:47:31.447Z,70.68
2018-07-15T07:48:31.433Z,70.49
2018-07-15T07:49:31.426Z,70.78
2018-07-15T07:50:31.425Z,70.72
2018-07-15T07:51:31.406Z,70.14
2018-07-15T07:52:31.408Z,70.20
2018-07-15T07:53:31.391Z,70.29
2018-07-15T07:54:31.394Z,69.53
2018-07-15T07:55:31.390Z,70.29
2018-07-15T07:56:31.371Z,69.81
2018-07-15T07:57:31.374Z,70.20
2018-07-15T07:58:31.349Z,69.53
2018-07-15T07:59:31.328Z,69.53
2018-07-15T08:00:31.348Z,69.72
2018-07-15T08:01:31.331Z,70.23
2018-07-15T08:02:31.322Z,70.04
2018-07-15T08:03:31.301Z,70.43
2018-07-15T08:04:31.294Z,70.14
2018-07-15T08:05:31.335Z,69.75
2018-07-15T08:06:31.283Z,70.52
2018-07-15T08:07:31.295Z,70.23
2018-07-15T08:08:31.286Z,69.56
2018-07-15T08:09:31.263Z,69.27
2018-07-15T08:10:31.245Z,69.46
2018-07-15T08:11:31.245Z,69.75
2018-07-15T08:12:31.258Z,69.66
2018-07-15T08:13:31.269Z,69.08
2018-07-15T08:14:31.233Z,68.89
2018-07-15T08:15:31.207Z,69.27
2018-07-15T08:16:31.209Z,68.51
2018-07-15T08:17:31.258Z,67.93
2018-07-15T08:18:31.956Z,68.51
2018-07-15T08:19:31.183Z,68.83
2018-07-15T08:20:31.174Z,68.63
2018-07-15T08:21:31.171Z,67.86
2018-07-15T08:22:31.192Z,67.00
2018-07-15T08:23:31.192Z,67.29
2018-07-15T08:24:31.181Z,67.54
2018-07-15T08:25:33.025Z,67.29
2018-07-15T08:26:31.127Z,67.48
2018-07-15T08:27:31.118Z,67.86
2018-07-15T08:28:31.265Z,67.68
2018-07-15T08:29:31.099Z,67.68
2018-07-15T08:30:31.190Z,67.77
2018-07-15T08:31:31.103Z,67.96
2018-07-15T08:32:31.073Z,67.48
2018-07-15T08:33:31.072Z,67.29
2018-07-15T08:34:31.123Z,67.00
2018-07-15T08:35:31.075Z,66.81
2018-07-15T08:36:31.043Z,67.71
2018-07-15T08:37:31.039Z,67.71
2018-07-15T08:38:31.041Z,68.19
2018-07-15T08:39:31.031Z,66.97
2018-07-15T08:40:31.097Z,66.49
2018-07-15T08:41:31.016Z,64.47
2018-07-15T08:42:31.003Z,65.01
2018-07-15T08:43:31.005Z,65.33
2018-07-15T08:44:30.993Z,65.63
2018-07-15T08:45:31.011Z,66.20
2018-07-15T08:46:31.003Z,64.95
2018-07-15T08:47:30.982Z,64.79
2018-07-15T08:48:30.969Z,65.46
2018-07-15T08:49:30.977Z,63.73
2018-07-15T08:50:31.031Z,64.31
2018-07-15T08:51:30.955Z,63.76
2018-07-15T08:52:30.951Z,64.53
2018-07-15T08:53:30.987Z,63.09
2018-07-15T08:54:30.951Z,62.41
2018-07-15T08:55:30.962Z,62.51
2018-07-15T08:56:30.964Z,61.77
2018-07-15T08:57:30.930Z,62.09
2018-07-15T08:58:30.928Z,61.93
2018-07-15T08:59:30.926Z,60.31
2018-07-15T09:00:30.918Z,58.77
2018-07-15T09:01:30.943Z,58.03
2018-07-15T09:02:30.912Z,57.57
2018-07-15T09:03:30.948Z,56.13
2018-07-15T09:04:30.916Z,56.18
2018-07-15T09:05:30.904Z,54.93
2018-07-15T09:06:30.897Z,55.34
2018-07-15T09:07:30.910Z,55.46
2018-07-15T09:08:30.939Z,55.85
2018-07-15T09:09:30.889Z,56.36
2018-07-15T09:10:30.910Z,56.32
2018-07-15T09:11:30.894Z,51.67
2018-07-15T09:12:30.899Z,49.95
2018-07-15T09:13:30.916Z,48.78
2018-07-15T09:14:30.930Z,50.56
2018-07-15T09:15:30.896Z,48.73
2018-07-15T09:16:30.906Z,47.45
2018-07-15T09:17:30.907Z,49.61
2018-07-15T09:18:30.906Z,50.21
2018-07-15T09:19:30.936Z,49.66
2018-07-15T09:20:30.935Z,49.85
2018-07-15T09:21:30.920Z,49.78
2018-07-15T09:22:30.913Z,50.19
2018-07-15T09:23:30.964Z,49.83
2018-07-15T09:24:30.916Z,47.61
2018-07-15T09:25:30.916Z,48.68
2018-07-15T09:26:30.924Z,49.76
2018-07-15T09:27:30.936Z,49.80
2018-07-15T09:28:31.141Z,46.78
2018-07-15T09:29:31.055Z,46.20
2018-07-15T09:30:30.948Z,47.83
2018-07-15T09:31:30.935Z,48.44
2018-07-15T09:32:30.945Z,45.90
2018-07-15T09:33:30.959Z,47.36
2018-07-15T09:34:30.992Z,48.73
2018-07-15T09:35:30.978Z,47.39
2018-07-15T09:36:30.962Z,45.83
2018-07-15T09:37:30.977Z,46.80
2018-07-15T09:38:30.979Z,47.90
2018-07-15T09:39:30.982Z,48.41
2018-07-15T09:40:30.990Z,45.29
2018-07-15T09:41:30.994Z,45.87
2018-07-15T09:42:31.009Z,47.75
2018-07-15T09:43:31.003Z,48.54
2018-07-15T09:44:31.056Z,49.61
2018-07-15T09:45:31.055Z,49.04
2018-07-15T09:46:31.031Z,47.50
2018-07-15T09:47:31.977Z,48.80
2018-07-15T09:48:31.081Z,45.30
2018-07-15T09:49:31.053Z,42.56
2018-07-15T09:50:31.111Z,43.24
2018-07-15T09:51:31.068Z,43.66
2018-07-15T09:52:31.071Z,40.92
2018-07-15T09:53:31.076Z,40.31
2018-07-15T09:54:31.092Z,40.60
2018-07-15T09:55:31.126Z,42.48
2018-07-15T09:56:31.104Z,43.19
2018-07-15T09:57:31.160Z,42.82
2018-07-15T09:58:31.133Z,39.31
2018-07-15T09:59:31.128Z,40.41
2018-07-15T10:00:31.197Z,41.11
2018-07-15T10:01:31.145Z,42.02
2018-07-15T10:02:31.162Z,40.27
2018-07-15T10:03:31.156Z,40.27
2018-07-15T10:04:31.218Z,42.06
2018-07-15T10:05:31.158Z,40.58
2018-07-15T10:06:31.282Z,41.27
2018-07-15T10:07:31.539Z,37.54
2018-07-15T10:08:31.201Z,35.95
2018-07-15T10:09:31.204Z,37.40
2018-07-15T10:10:31.347Z,39.37
2018-07-15T10:11:31.223Z,37.90
2018-07-15T10:12:31.235Z,39.09
2018-07-15T10:13:31.256Z,38.62
2018-07-15T10:14:31.254Z,39.42
2018-07-15T10:15:31.270Z,39.23
2018-07-15T10:16:31.309Z,39.05
2018-07-15T10:17:31.290Z,40.45
2018-07-15T10:18:31.310Z,37.59
2018-07-15T10:19:31.299Z,36.82
2018-07-15T10:20:31.304Z,34.44
2018-07-15T10:21:31.556Z,34.54
2018-07-15T10:22:31.315Z,34.94
2018-07-15T10:23:31.396Z,34.74
2018-07-15T10:24:36.399Z,34.84
2018-07-15T10:25:31.349Z,35.44
2018-07-15T10:26:31.399Z,35.07
2018-07-15T10:27:31.355Z,35.74
2018-07-15T10:28:31.371Z,37.41
2018-07-15T10:29:31.439Z,36.94
2018-07-15T10:30:31.411Z,37.55
2018-07-15T10:31:31.399Z,33.11
2018-07-15T10:32:31.400Z,35.28
2018-07-15T10:33:31.423Z,33.23
2018-07-15T10:34:31.467Z,33.01
2018-07-15T10:35:31.440Z,33.41
2018-07-15T10:36:31.449Z,34.12
2018-07-15T10:37:31.526Z,34.31
2018-07-15T10:38:31.470Z,30.07
2018-07-15T10:39:31.502Z,30.06
2018-07-15T10:40:31.485Z,30.35
2018-07-15T10:41:31.554Z,33.11
2018-07-15T10:42:31.509Z,34.89
2018-07-15T10:43:31.506Z,33.22
2018-07-15T10:44:31.596Z,31.85
2018-07-15T10:45:31.543Z,30.55
2018-07-15T10:46:31.555Z,30.75
2018-07-15T10:47:31.558Z,31.23
2018-07-15T10:48:31.567Z,30.93
2018-07-15T10:49:31.623Z,32.11
2018-07-15T10:50:31.606Z,31.62
2018-07-15T10:51:31.586Z,30.06
2018-07-15T10:52:31.599Z,29.96
2018-07-15T10:53:32.522Z,28.78
2018-07-15T10:54:31.631Z,31.34
2018-07-15T10:55:32.617Z,29.25
2018-07-15T10:56:31.662Z,30.26
2018-07-15T10:57:31.665Z,30.75
2018-07-15T10:58:31.671Z,32.04
2018-07-15T10:59:31.678Z,33.54
2018-07-15T11:00:31.759Z,33.44
2018-07-15T11:01:31.716Z,33.58
2018-07-15T11:02:31.737Z,32.19
2018-07-15T11:03:31.707Z,31.20
2018-07-15T11:04:31.747Z,33.75
2018-07-15T11:05:31.726Z,34.55
2018-07-15T11:06:31.766Z,35.15
2018-07-15T11:07:33.725Z,34.08
2018-07-15T11:08:31.779Z,30.02
2018-07-15T11:09:31.780Z,29.21
2018-07-15T11:10:41.099Z,30.09
2018-07-15T11:11:31.807Z,27.99
2018-07-15T11:12:31.804Z,28.96
2018-07-15T11:13:31.843Z,30.62
2018-07-15T11:14:31.821Z,32.90
2018-07-15T11:15:31.823Z,32.32
2018-07-15T11:16:32.159Z,33.03
2018-07-15T11:17:31.923Z,34.81
2018-07-15T11:18:31.937Z,33.13
2018-07-15T11:19:31.871Z,35.31
2018-07-15T11:20:31.891Z,35.12
2018-07-15T11:21:31.982Z,33.95
2018-07-15T11:22:31.944Z,32.19
2018-07-15T11:23:31.913Z,30.02
2018-07-15T11:24:31.932Z,31.79
2018-07-15T11:25:32.036Z,28.64
2018-07-15T11:26:31.941Z,29.91
2018-07-15T11:27:31.964Z,28.11
2018-07-15T11:28:31.959Z,32.64
2018-07-15T11:29:31.973Z,33.82
2018-07-15T11:30:32.033Z,31.57
2018-07-15T11:31:32.001Z,26.24
2018-07-15T11:32:32.007Z,30.68
2018-07-15T11:33:32.027Z,31.27
2018-07-15T11:34:32.034Z,33.26
2018-07-15T11:35:34.576Z,30.00
2018-07-15T11:36:32.061Z,30.00
2018-07-15T11:37:32.062Z,30.02
2018-07-15T11:38:32.607Z,27.64
2018-07-15T11:39:32.641Z,30.79
2018-07-15T11:40:32.112Z,32.59
2018-07-15T11:41:32.099Z,33.59
2018-07-15T11:42:32.220Z,33.70
2018-07-15T11:43:32.108Z,31.82
2018-07-15T11:44:32.146Z,29.85
2018-07-15T11:45:32.175Z,31.32
2018-07-15T11:46:32.189Z,32.01
2018-07-15T11:47:32.172Z,33.79
2018-07-15T11:48:32.159Z,29.05
2018-07-15T11:49:32.225Z,28.75
2018-07-15T11:50:33.111Z,29.34
2018-07-15T11:51:33.088Z,30.73
2018-07-15T11:54:18.135Z,29.74
2018-07-15T11:55:18.157Z,24.40
2018-07-15T11:56:18.166Z,27.04
2018-07-15T11:57:18.203Z,28.11
2018-07-15T11:58:18.148Z,28.79
2018-07-15T11:59:18.167Z,28.38
2018-07-15T12:00:18.170Z,30.24
2018-07-15T12:01:18.187Z,31.88
2018-07-15T12:02:18.184Z,30.88
2018-07-15T12:03:18.254Z,31.66
2018-07-15T12:04:18.197Z,32.43
2018-07-15T12:05:18.209Z,33.08
2018-07-15T12:06:18.212Z,33.07
2018-07-15T12:07:18.221Z,33.54
2018-07-15T12:08:18.285Z,33.04
2018-07-15T12:09:18.287Z,33.90
2018-07-15T12:10:18.364Z,31.91
2018-07-15T12:11:18.247Z,34.24
2018-07-15T12:12:18.264Z,35.21
2018-07-15T12:13:18.283Z,35.79
2018-07-15T12:14:18.256Z,34.21
2018-07-15T12:15:18.240Z,35.27
2018-07-15T12:16:18.261Z,36.15
2018-07-15T12:17:18.526Z,34.77
2018-07-15T12:18:18.268Z,34.96
2018-07-15T12:19:18.267Z,36.31
2018-07-15T12:20:18.282Z,35.61
2018-07-15T12:21:18.274Z,35.61
2018-07-15T12:22:18.281Z,36.10
2018-07-15T12:23:18.283Z,36.37
2018-07-15T12:24:18.287Z,34.69
2018-07-15T12:25:19.967Z,35.47
2018-07-15T12:26:18.294Z,35.36
2018-07-15T12:27:31.515Z,36.80
2018-07-15T12:28:20.025Z,37.00
2018-07-15T12:29:18.281Z,36.61
2018-07-15T12:30:18.285Z,37.27
2018-07-15T12:31:20.199Z,36.90
2018-07-15T12:32:20.007Z,37.37
2018-07-15T12:33:19.010Z,36.77
2018-07-15T12:34:19.020Z,37.06
2018-07-15T12:35:18.456Z,38.89
2018-07-15T12:36:18.287Z,40.06
2018-07-15T12:37:18.285Z,39.08
2018-07-15T12:38:19.507Z,38.01
2018-07-15T12:39:20.000Z,36.85
2018-07-15T12:40:18.286Z,36.54
2018-07-15T12:41:18.290Z,36.94
2018-07-15T12:42:18.592Z,36.73
2018-07-15T12:43:18.312Z,36.93
2018-07-15T12:44:19.009Z,36.73
2018-07-15T12:45:19.608Z,37.80
2018-07-15T12:46:18.295Z,38.19
2018-07-15T12:47:18.277Z,38.50
2018-07-15T12:48:18.292Z,38.19
2018-07-15T12:49:18.322Z,36.93
2018-07-15T12:50:18.279Z,38.87
2018-07-15T12:51:18.325Z,38.96
2018-07-15T12:52:20.001Z,39.06
2018-07-15T12:53:18.325Z,39.84
2018-07-15T12:54:19.043Z,39.36
2018-07-15T12:55:18.297Z,39.94
2018-07-15T12:56:18.275Z,39.26
2018-07-15T12:57:20.027Z,39.75
2018-07-15T12:58:18.293Z,39.94
2018-07-15T12:59:18.270Z,40.13
2018-07-15T13:00:18.579Z,38.65
2018-07-15T13:01:18.359Z,39.43
2018-07-15T13:02:18.320Z,38.65
2018-07-15T13:03:18.538Z,38.93
2018-07-15T13:04:19.016Z,39.32
2018-07-15T13:05:18.271Z,38.93
2018-07-15T13:06:18.349Z,39.90
2018-07-15T13:07:20.467Z,39.03
2018-07-15T13:08:18.609Z,39.80
2018-07-15T13:09:19.258Z,39.90
2018-07-15T13:10:18.257Z,39.70
2018-07-15T13:11:18.268Z,38.83
2018-07-15T13:12:18.571Z,40.09
2018-07-15T13:13:18.272Z,39.61
2018-07-15T13:14:18.258Z,40.29
2018-07-15T13:15:19.267Z,40.29
2018-07-15T13:16:18.341Z,40.97
2018-07-15T13:17:18.285Z,39.03
2018-07-15T13:18:18.295Z,39.32
2018-07-15T13:19:18.260Z,38.71
2018-07-15T13:20:18.829Z,38.06
2018-07-15T13:21:18.276Z,39.03
2018-07-15T13:22:31.513Z,40.09
2018-07-15T13:23:19.173Z,40.09
2018-07-15T13:24:18.264Z,40.29
2018-07-15T13:25:19.023Z,39.29
2018-07-15T13:26:18.289Z,39.01
2018-07-15T13:27:18.981Z,40.26
2018-07-15T13:28:18.236Z,40.75
2018-07-15T13:29:18.233Z,40.85
2018-07-15T13:30:18.225Z,41.43
2018-07-15T13:31:18.222Z,40.66
2018-07-15T13:32:18.266Z,39.88
2018-07-15T13:33:18.226Z,39.98
2018-07-15T13:34:18.326Z,39.39
2018-07-15T13:35:18.226Z,39.98
2018-07-15T13:36:18.229Z,40.08
2018-07-15T13:37:20.062Z,40.56
2018-07-15T13:38:18.233Z,40.56
2018-07-15T13:39:18.243Z,39.69
2018-07-15T13:40:18.235Z,39.88
2018-07-15T13:41:18.207Z,38.71
2018-07-15T13:42:18.229Z,39.18
2018-07-15T13:43:20.072Z,39.88
2018-07-15T13:44:20.085Z,40.26
2018-07-15T13:45:18.213Z,39.69
2018-07-15T13:46:18.222Z,39.76
2018-07-15T13:47:19.287Z,40.17
2018-07-15T13:48:18.196Z,39.98
2018-07-15T13:49:19.076Z,39.59
2018-07-15T13:50:26.046Z,40.05
2018-07-15T13:51:18.193Z,39.95
2018-07-15T13:52:18.188Z,38.13
2018-07-15T13:53:20.109Z,39.29
2018-07-15T13:54:18.610Z,39.29
2018-07-15T13:55:18.177Z,40.08
2018-07-15T13:56:18.540Z,40.75
2018-07-15T13:57:23.106Z,40.64
2018-07-15T13:58:42.583Z,39.59
2018-07-15T13:59:18.160Z,39.88
2018-07-15T14:00:19.101Z,39.88
2018-07-15T14:01:23.097Z,38.23
2018-07-15T14:02:18.646Z,38.04
2018-07-15T14:03:18.461Z,38.79
2018-07-15T14:04:20.486Z,39.28
2018-07-15T14:05:41.309Z,39.08
2018-07-15T14:06:21.152Z,40.05
2018-07-15T14:07:54.200Z,39.76
2018-07-15T14:08:18.682Z,40.05
2018-07-15T14:09:18.149Z,40.25
2018-07-15T14:10:18.672Z,40.73
2018-07-15T14:11:18.140Z,41.02
2018-07-15T14:12:24.213Z,40.46
2018-07-15T14:13:19.724Z,40.46
2018-07-15T14:14:18.148Z,41.05
2018-07-15T14:15:18.747Z,40.44
2018-07-15T14:16:19.279Z,40.26
2018-07-15T14:18:06.745Z,41.05
2018-07-15T14:18:18.210Z,40.75
2018-07-15T14:19:18.128Z,41.05
2018-07-15T14:20:18.119Z,40.36
2018-07-15T14:21:18.124Z,40.54
2018-07-15T14:22:18.128Z,40.25
2018-07-15T14:23:18.123Z,40.15
2018-07-15T14:24:18.366Z,40.44
2018-07-15T14:25:39.236Z,40.73
2018-07-15T14:26:18.099Z,39.20
2018-07-15T14:27:18.106Z,38.70
2018-07-15T14:28:20.728Z,38.79
2018-07-15T14:29:18.152Z,39.37
2018-07-15T14:30:18.096Z,38.79
2018-07-15T14:31:18.089Z,38.60
2018-07-15T14:32:18.110Z,38.40
2018-07-15T14:33:18.101Z,39.28
2018-07-15T14:34:18.096Z,39.86
2018-07-15T14:35:18.112Z,39.28
2018-07-15T14:36:24.842Z,38.99